Terminal Aerodrome Forecast
Issued by NWS

Home | Current Version | Previous Version | Text Only | Print | Product List | Glossary On
Versions: 1 2 3 4 5 6 7 8 9 10 11 12 13 14 15
000
FTUS45 KSLC 230540
TAF36U
TAF
K36U 230540Z 2306/2406 VRB05KT P6SM -SHRA SCT060 BKN090
     FM231300 VRB03KT P6SM VCSH SCT090 BKN120
     FM231900 23008KT P6SM SCT100 BKN120
     FM240200 VRB04KT P6SM SCT120=

USA.gov is the U.S. government's official web portal to all federal, state and local government web resources and services.